sensor_id;sensor_type;location;lat;lon;timestamp;P1;durP1;ratioP1;P2;durP2;ratioP2
51616;SDS011;37697;52.588;13.394;2024-03-02T00:04:21;54.90;;;36.50;;
51616;SDS011;37697;52.588;13.394;2024-03-02T00:09:47;53.40;;;34.60;;
51616;SDS011;37697;52.588;13.394;2024-03-02T00:15:20;48.00;;;34.70;;
51616;SDS011;37697;52.588;13.394;2024-03-02T00:21:08;55.60;;;37.90;;
51616;SDS011;37697;52.588;13.394;2024-03-02T00:26:34;60.80;;;41.40;;
51616;SDS011;37697;52.588;13.394;2024-03-02T00:31:59;58.30;;;40.50;;
51616;SDS011;37697;52.588;13.394;2024-03-02T00:37:26;55.80;;;39.60;;
51616;SDS011;37697;52.588;13.394;2024-03-02T00:42:53;62.00;;;39.30;;
51616;SDS011;37697;52.588;13.394;2024-03-02T00:48:19;55.40;;;36.70;;
51616;SDS011;37697;52.588;13.394;2024-03-02T00:53:45;60.20;;;37.80;;
51616;SDS011;37697;52.588;13.394;2024-03-02T00:59:11;55.10;;;36.70;;
51616;SDS011;37697;52.588;13.394;2024-03-02T01:04:37;47.00;;;33.00;;
51616;SDS011;37697;52.588;13.394;2024-03-02T01:10:03;53.30;;;35.30;;
51616;SDS011;37697;52.588;13.394;2024-03-02T01:15:29;50.50;;;33.10;;
51616;SDS011;37697;52.588;13.394;2024-03-02T01:20:55;45.60;;;31.00;;
51616;SDS011;37697;52.588;13.394;2024-03-02T01:26:21;46.80;;;30.60;;
51616;SDS011;37697;52.588;13.394;2024-03-02T01:31:47;46.40;;;31.60;;
51616;SDS011;37697;52.588;13.394;2024-03-02T01:37:13;44.40;;;29.70;;
51616;SDS011;37697;52.588;13.394;2024-03-02T01:42:39;45.10;;;30.20;;
51616;SDS011;37697;52.588;13.394;2024-03-02T01:48:06;50.70;;;32.60;;
51616;SDS011;37697;52.588;13.394;2024-03-02T01:53:34;47.90;;;31.50;;
51616;SDS011;37697;52.588;13.394;2024-03-02T01:59:01;49.80;;;31.60;;
51616;SDS011;37697;52.588;13.394;2024-03-02T02:04:40;45.90;;;30.10;;
51616;SDS011;37697;52.588;13.394;2024-03-02T02:10:06;44.30;;;28.60;;
51616;SDS011;37697;52.588;13.394;2024-03-02T02:15:33;42.50;;;28.40;;
51616;SDS011;37697;52.588;13.394;2024-03-02T02:21:10;41.80;;;28.30;;
51616;SDS011;37697;52.588;13.394;2024-03-02T02:26:36;41.70;;;27.60;;
51616;SDS011;37697;52.588;13.394;2024-03-02T02:32:02;42.20;;;29.50;;
51616;SDS011;37697;52.588;13.394;2024-03-02T02:37:28;40.70;;;28.40;;
51616;SDS011;37697;52.588;13.394;2024-03-02T02:42:54;40.80;;;27.20;;
51616;SDS011;37697;52.588;13.394;2024-03-02T02:48:19;39.40;;;26.60;;
51616;SDS011;37697;52.588;13.394;2024-03-02T02:53:45;42.90;;;30.30;;
51616;SDS011;37697;52.588;13.394;2024-03-02T02:59:11;51.50;;;35.00;;
51616;SDS011;37697;52.588;13.394;2024-03-02T03:04:37;50.70;;;35.20;;
51616;SDS011;37697;52.588;13.394;2024-03-02T03:10:06;60.10;;;39.10;;
51616;SDS011;37697;52.588;13.394;2024-03-02T03:15:32;58.30;;;39.00;;
51616;SDS011;37697;52.588;13.394;2024-03-02T03:20:51;58.70;;;38.80;;
51616;SDS011;37697;52.588;13.394;2024-03-02T03:26:17;55.80;;;36.90;;
51616;SDS011;37697;52.588;13.394;2024-03-02T03:31:43;60.40;;;39.80;;
51616;SDS011;37697;52.588;13.394;2024-03-02T03:37:09;59.00;;;39.30;;
51616;SDS011;37697;52.588;13.394;2024-03-02T03:42:34;62.70;;;40.90;;
51616;SDS011;37697;52.588;13.394;2024-03-02T03:47:59;49.90;;;33.80;;
51616;SDS011;37697;52.588;13.394;2024-03-02T03:53:48;52.90;;;37.40;;
51616;SDS011;37697;52.588;13.394;2024-03-02T03:59:14;50.50;;;35.40;;
51616;SDS011;37697;52.588;13.394;2024-03-02T04:04:40;54.10;;;36.60;;
51616;SDS011;37697;52.588;13.394;2024-03-02T04:10:21;73.00;;;42.90;;
51616;SDS011;37697;52.588;13.394;2024-03-02T04:16:00;68.30;;;40.00;;
51616;SDS011;37697;52.588;13.394;2024-03-02T04:21:45;56.60;;;38.10;;
51616;SDS011;37697;52.588;13.394;2024-03-02T04:27:24;58.00;;;38.40;;
51616;SDS011;37697;52.588;13.394;2024-03-02T04:32:49;54.20;;;36.30;;
51616;SDS011;37697;52.588;13.394;2024-03-02T04:38:08;46.60;;;31.50;;
51616;SDS011;37697;52.588;13.394;2024-03-02T04:43:33;47.10;;;33.60;;
51616;SDS011;37697;52.588;13.394;2024-03-02T04:48:59;52.70;;;34.90;;
51616;SDS011;37697;52.588;13.394;2024-03-02T04:54:25;47.60;;;32.90;;
51616;SDS011;37697;52.588;13.394;2024-03-02T04:59:52;53.50;;;36.10;;
51616;SDS011;37697;52.588;13.394;2024-03-02T05:05:38;51.00;;;35.10;;
51616;SDS011;37697;52.588;13.394;2024-03-02T05:11:07;50.60;;;35.30;;
51616;SDS011;37697;52.588;13.394;2024-03-02T05:16:33;57.90;;;36.30;;
51616;SDS011;37697;52.588;13.394;2024-03-02T05:22:12;53.70;;;32.70;;
51616;SDS011;37697;52.588;13.394;2024-03-02T05:27:39;51.30;;;36.00;;
51616;SDS011;37697;52.588;13.394;2024-03-02T05:32:57;45.20;;;31.70;;
51616;SDS011;37697;52.588;13.394;2024-03-02T05:38:42;46.20;;;31.80;;
51616;SDS011;37697;52.588;13.394;2024-03-02T05:44:20;45.20;;;31.20;;
51616;SDS011;37697;52.588;13.394;2024-03-02T05:49:47;45.90;;;31.20;;
51616;SDS011;37697;52.588;13.394;2024-03-02T05:55:12;43.70;;;31.70;;
51616;SDS011;37697;52.588;13.394;2024-03-02T06:00:54;47.20;;;33.90;;
51616;SDS011;37697;52.588;13.394;2024-03-02T06:06:32;44.80;;;30.90;;
51616;SDS011;37697;52.588;13.394;2024-03-02T06:12:18;52.90;;;35.90;;
51616;SDS011;37697;52.588;13.394;2024-03-02T06:17:57;54.10;;;33.60;;
51616;SDS011;37697;52.588;13.394;2024-03-02T06:23:25;47.60;;;31.60;;
51616;SDS011;37697;52.588;13.394;2024-03-02T06:28:50;49.80;;;33.10;;
51616;SDS011;37697;52.588;13.394;2024-03-02T06:34:35;54.20;;;37.00;;
51616;SDS011;37697;52.588;13.394;2024-03-02T06:40:13;47.40;;;32.20;;
51616;SDS011;37697;52.588;13.394;2024-03-02T06:46:02;51.20;;;33.70;;
51616;SDS011;37697;52.588;13.394;2024-03-02T06:51:40;57.60;;;39.80;;
51616;SDS011;37697;52.588;13.394;2024-03-02T06:57:29;53.60;;;35.80;;
51616;SDS011;37697;52.588;13.394;2024-03-02T07:02:55;57.70;;;37.70;;
51616;SDS011;37697;52.588;13.394;2024-03-02T07:08:34;55.30;;;37.00;;
51616;SDS011;37697;52.588;13.394;2024-03-02T07:14:02;52.10;;;35.90;;
51616;SDS011;37697;52.588;13.394;2024-03-02T07:19:28;58.80;;;38.90;;
51616;SDS011;37697;52.588;13.394;2024-03-02T07:24:54;51.00;;;35.70;;
51616;SDS011;37697;52.588;13.394;2024-03-02T07:30:24;58.90;;;38.20;;
51616;SDS011;37697;52.588;13.394;2024-03-02T07:36:13;55.30;;;37.70;;
51616;SDS011;37697;52.588;13.394;2024-03-02T07:41:52;54.30;;;36.20;;
51616;SDS011;37697;52.588;13.394;2024-03-02T07:47:17;57.20;;;36.90;;
51616;SDS011;37697;52.588;13.394;2024-03-02T07:52:43;56.40;;;37.30;;
51616;SDS011;37697;52.588;13.394;2024-03-02T07:58:09;54.30;;;35.30;;
51616;SDS011;37697;52.588;13.394;2024-03-02T08:03:35;59.20;;;38.50;;
51616;SDS011;37697;52.588;13.394;2024-03-02T08:09:20;51.80;;;35.20;;
51616;SDS011;37697;52.588;13.394;2024-03-02T08:14:58;55.80;;;36.70;;
51616;SDS011;37697;52.588;13.394;2024-03-02T08:20:36;51.90;;;35.70;;
51616;SDS011;37697;52.588;13.394;2024-03-02T08:26:01;61.60;;;38.40;;
51616;SDS011;37697;52.588;13.394;2024-03-02T08:31:08;56.90;;;38.20;;
51616;SDS011;37697;52.588;13.394;2024-03-02T08:36:55;53.00;;;36.70;;
51616;SDS011;37697;52.588;13.394;2024-03-02T08:42:33;56.40;;;36.80;;
51616;SDS011;37697;52.588;13.394;2024-03-02T08:47:59;54.40;;;36.70;;
51616;SDS011;37697;52.588;13.394;2024-03-02T08:53:37;50.60;;;35.20;;
51616;SDS011;37697;52.588;13.394;2024-03-02T08:59:15;53.40;;;36.20;;
51616;SDS011;37697;52.588;13.394;2024-03-02T09:04:33;54.50;;;34.80;;
51616;SDS011;37697;52.588;13.394;2024-03-02T09:10:11;51.60;;;34.70;;
51616;SDS011;37697;52.588;13.394;2024-03-02T09:15:49;50.80;;;34.70;;
51616;SDS011;37697;52.588;13.394;2024-03-02T09:21:27;50.60;;;33.20;;
51616;SDS011;37697;52.588;13.394;2024-03-02T09:27:05;51.90;;;35.30;;
51616;SDS011;37697;52.588;13.394;2024-03-02T09:32:42;44.30;;;30.40;;
51616;SDS011;37697;52.588;13.394;2024-03-02T09:38:30;47.00;;;31.30;;
51616;SDS011;37697;52.588;13.394;2024-03-02T09:43:48;45.10;;;32.40;;
51616;SDS011;37697;52.588;13.394;2024-03-02T09:49:14;44.60;;;31.80;;
51616;SDS011;37697;52.588;13.394;2024-03-02T09:54:53;46.80;;;32.00;;
51616;SDS011;37697;52.588;13.394;2024-03-02T10:00:19;46.50;;;33.10;;
51616;SDS011;37697;52.588;13.394;2024-03-02T10:05:45;42.00;;;30.20;;
51616;SDS011;37697;52.588;13.394;2024-03-02T10:10:53;48.60;;;32.00;;
51616;SDS011;37697;52.588;13.394;2024-03-02T10:16:18;39.10;;;27.50;;
51616;SDS011;37697;52.588;13.394;2024-03-02T10:21:44;42.30;;;27.70;;
51616;SDS011;37697;52.588;13.394;2024-03-02T10:27:11;39.20;;;28.00;;
51616;SDS011;37697;52.588;13.394;2024-03-02T10:32:39;34.60;;;25.70;;
51616;SDS011;37697;52.588;13.394;2024-03-02T10:38:05;34.30;;;24.60;;
51616;SDS011;37697;52.588;13.394;2024-03-02T10:43:24;39.80;;;27.70;;
51616;SDS011;37697;52.588;13.394;2024-03-02T10:48:51;35.10;;;24.90;;
51616;SDS011;37697;52.588;13.394;2024-03-02T10:54:17;29.60;;;21.90;;
51616;SDS011;37697;52.588;13.394;2024-03-02T10:59:45;28.60;;;19.90;;
51616;SDS011;37697;52.588;13.394;2024-03-02T11:05:09;31.10;;;23.20;;
51616;SDS011;37697;52.588;13.394;2024-03-02T11:10:37;33.30;;;22.40;;
51616;SDS011;37697;52.588;13.394;2024-03-02T11:15:58;28.80;;;21.30;;
51616;SDS011;37697;52.588;13.394;2024-03-02T11:21:20;27.10;;;19.20;;
51616;SDS011;37697;52.588;13.394;2024-03-02T11:26:46;23.40;;;17.60;;
51616;SDS011;37697;52.588;13.394;2024-03-02T11:32:15;23.80;;;16.80;;
51616;SDS011;37697;52.588;13.394;2024-03-02T11:37:44;23.10;;;17.30;;
51616;SDS011;37697;52.588;13.394;2024-03-02T11:43:10;23.10;;;16.20;;
51616;SDS011;37697;52.588;13.394;2024-03-02T11:48:36;23.50;;;18.20;;
51616;SDS011;37697;52.588;13.394;2024-03-02T11:54:03;22.10;;;15.70;;
51616;SDS011;37697;52.588;13.394;2024-03-02T11:59:23;21.30;;;16.10;;
51616;SDS011;37697;52.588;13.394;2024-03-02T12:04:50;22.00;;;16.30;;
51616;SDS011;37697;52.588;13.394;2024-03-02T12:10:16;23.00;;;15.90;;
51616;SDS011;37697;52.588;13.394;2024-03-02T12:15:42;25.00;;;17.20;;
51616;SDS011;37697;52.588;13.394;2024-03-02T12:21:08;24.50;;;16.90;;
51616;SDS011;37697;52.588;13.394;2024-03-02T12:26:34;23.20;;;16.60;;
51616;SDS011;37697;52.588;13.394;2024-03-02T12:31:59;20.80;;;14.70;;
51616;SDS011;37697;52.588;13.394;2024-03-02T12:37:19;22.10;;;16.10;;
51616;SDS011;37697;52.588;13.394;2024-03-02T12:42:38;19.10;;;13.70;;
51616;SDS011;37697;52.588;13.394;2024-03-02T12:48:04;18.60;;;13.70;;
51616;SDS011;37697;52.588;13.394;2024-03-02T12:53:30;18.70;;;13.90;;
51616;SDS011;37697;52.588;13.394;2024-03-02T12:58:56;18.80;;;13.70;;
51616;SDS011;37697;52.588;13.394;2024-03-02T13:04:23;19.60;;;12.60;;
51616;SDS011;37697;52.588;13.394;2024-03-02T13:09:49;20.40;;;16.10;;
51616;SDS011;37697;52.588;13.394;2024-03-02T13:15:16;22.10;;;15.10;;
51616;SDS011;37697;52.588;13.394;2024-03-02T13:20:50;20.20;;;14.90;;
51616;SDS011;37697;52.588;13.394;2024-03-02T13:26:16;20.00;;;15.80;;
51616;SDS011;37697;52.588;13.394;2024-03-02T13:31:42;21.10;;;16.50;;
51616;SDS011;37697;52.588;13.394;2024-03-02T13:37:08;19.10;;;13.10;;
51616;SDS011;37697;52.588;13.394;2024-03-02T13:42:34;17.90;;;12.80;;
51616;SDS011;37697;52.588;13.394;2024-03-02T13:48:00;15.60;;;11.50;;
51616;SDS011;37697;52.588;13.394;2024-03-02T13:53:25;14.40;;;11.40;;
51616;SDS011;37697;52.588;13.394;2024-03-02T13:58:51;15.20;;;10.80;;
51616;SDS011;37697;52.588;13.394;2024-03-02T14:04:17;14.80;;;10.80;;
51616;SDS011;37697;52.588;13.394;2024-03-02T14:09:43;15.30;;;11.10;;
51616;SDS011;37697;52.588;13.394;2024-03-02T14:15:09;16.90;;;11.60;;
51616;SDS011;37697;52.588;13.394;2024-03-02T14:20:35;16.10;;;11.00;;
51616;SDS011;37697;52.588;13.394;2024-03-02T14:26:01;14.70;;;10.60;;
51616;SDS011;37697;52.588;13.394;2024-03-02T14:31:26;13.00;;;9.90;;
51616;SDS011;37697;52.588;13.394;2024-03-02T14:36:52;14.10;;;10.60;;
51616;SDS011;37697;52.588;13.394;2024-03-02T14:42:18;14.00;;;9.00;;
51616;SDS011;37697;52.588;13.394;2024-03-02T14:47:44;11.20;;;8.30;;
51616;SDS011;37697;52.588;13.394;2024-03-02T14:53:10;11.30;;;7.40;;
51616;SDS011;37697;52.588;13.394;2024-03-02T14:58:36;11.90;;;8.40;;
51616;SDS011;37697;52.588;13.394;2024-03-02T15:04:02;12.10;;;9.10;;
51616;SDS011;37697;52.588;13.394;2024-03-02T15:09:27;10.00;;;7.20;;
51616;SDS011;37697;52.588;13.394;2024-03-02T15:14:53;11.70;;;7.80;;
51616;SDS011;37697;52.588;13.394;2024-03-02T15:20:19;13.40;;;10.20;;
51616;SDS011;37697;52.588;13.394;2024-03-02T15:25:44;13.50;;;9.40;;
51616;SDS011;37697;52.588;13.394;2024-03-02T15:31:12;11.50;;;8.50;;
51616;SDS011;37697;52.588;13.394;2024-03-02T15:36:37;13.20;;;9.20;;
51616;SDS011;37697;52.588;13.394;2024-03-02T15:42:03;12.30;;;8.80;;
51616;SDS011;37697;52.588;13.394;2024-03-02T15:47:29;12.10;;;8.70;;
51616;SDS011;37697;52.588;13.394;2024-03-02T15:52:55;11.30;;;8.30;;
51616;SDS011;37697;52.588;13.394;2024-03-02T15:58:21;11.00;;;8.70;;
51616;SDS011;37697;52.588;13.394;2024-03-02T16:03:47;11.60;;;8.60;;
51616;SDS011;37697;52.588;13.394;2024-03-02T16:09:12;12.60;;;8.30;;
51616;SDS011;37697;52.588;13.394;2024-03-02T16:14:38;13.40;;;8.50;;
51616;SDS011;37697;52.588;13.394;2024-03-02T16:20:04;13.40;;;9.00;;
51616;SDS011;37697;52.588;13.394;2024-03-02T16:25:31;16.80;;;12.00;;
51616;SDS011;37697;52.588;13.394;2024-03-02T16:30:57;14.60;;;9.10;;
51616;SDS011;37697;52.588;13.394;2024-03-02T16:36:23;15.30;;;10.70;;
51616;SDS011;37697;52.588;13.394;2024-03-02T16:41:41;15.30;;;10.00;;
51616;SDS011;37697;52.588;13.394;2024-03-02T16:47:00;13.30;;;9.70;;
51616;SDS011;37697;52.588;13.394;2024-03-02T16:52:26;26.50;;;16.40;;
51616;SDS011;37697;52.588;13.394;2024-03-02T16:57:42;38.50;;;19.40;;
51616;SDS011;37697;52.588;13.394;2024-03-02T17:03:01;37.30;;;20.20;;
51616;SDS011;37697;52.588;13.394;2024-03-02T17:08:27;25.50;;;15.60;;
51616;SDS011;37697;52.588;13.394;2024-03-02T17:13:53;167.10;;;76.90;;
51616;SDS011;37697;52.588;13.394;2024-03-02T17:19:11;51.50;;;29.20;;
51616;SDS011;37697;52.588;13.394;2024-03-02T17:24:37;30.70;;;18.70;;
51616;SDS011;37697;52.588;13.394;2024-03-02T17:30:04;50.60;;;23.80;;
51616;SDS011;37697;52.588;13.394;2024-03-02T17:35:31;104.90;;;48.70;;
51616;SDS011;37697;52.588;13.394;2024-03-02T17:40:57;31.20;;;18.30;;
51616;SDS011;37697;52.588;13.394;2024-03-02T17:46:23;30.30;;;16.60;;
51616;SDS011;37697;52.588;13.394;2024-03-02T17:51:48;20.10;;;11.90;;
51616;SDS011;37697;52.588;13.394;2024-03-02T17:57:14;14.80;;;10.20;;
51616;SDS011;37697;52.588;13.394;2024-03-02T18:02:40;16.40;;;10.80;;
51616;SDS011;37697;52.588;13.394;2024-03-02T18:08:06;16.30;;;10.50;;
51616;SDS011;37697;52.588;13.394;2024-03-02T18:13:25;14.50;;;9.80;;
51616;SDS011;37697;52.588;13.394;2024-03-02T18:18:50;15.10;;;10.40;;
51616;SDS011;37697;52.588;13.394;2024-03-02T18:24:16;14.90;;;10.70;;
51616;SDS011;37697;52.588;13.394;2024-03-02T18:29:42;14.80;;;10.20;;
51616;SDS011;37697;52.588;13.394;2024-03-02T18:35:08;15.10;;;10.40;;
51616;SDS011;37697;52.588;13.394;2024-03-02T18:40:34;16.30;;;10.50;;
51616;SDS011;37697;52.588;13.394;2024-03-02T18:45:59;15.90;;;11.10;;
51616;SDS011;37697;52.588;13.394;2024-03-02T18:51:25;15.00;;;10.70;;
51616;SDS011;37697;52.588;13.394;2024-03-02T18:56:51;16.40;;;11.90;;
51616;SDS011;37697;52.588;13.394;2024-03-02T19:02:17;18.10;;;10.80;;
51616;SDS011;37697;52.588;13.394;2024-03-02T19:07:42;15.90;;;11.60;;
51616;SDS011;37697;52.588;13.394;2024-03-02T19:13:08;16.40;;;11.40;;
51616;SDS011;37697;52.588;13.394;2024-03-02T19:18:34;15.30;;;11.70;;
51616;SDS011;37697;52.588;13.394;2024-03-02T19:23:59;18.90;;;11.50;;
51616;SDS011;37697;52.588;13.394;2024-03-02T19:29:25;21.10;;;14.20;;
51616;SDS011;37697;52.588;13.394;2024-03-02T19:34:51;25.30;;;17.70;;
51616;SDS011;37697;52.588;13.394;2024-03-02T19:40:16;21.90;;;15.50;;
51616;SDS011;37697;52.588;13.394;2024-03-02T19:45:42;24.70;;;17.40;;
51616;SDS011;37697;52.588;13.394;2024-03-02T19:51:08;21.60;;;15.30;;
51616;SDS011;37697;52.588;13.394;2024-03-02T19:56:26;25.10;;;16.70;;
51616;SDS011;37697;52.588;13.394;2024-03-02T20:01:52;24.00;;;15.70;;
51616;SDS011;37697;52.588;13.394;2024-03-02T20:07:21;26.10;;;16.10;;
51616;SDS011;37697;52.588;13.394;2024-03-02T20:12:47;23.90;;;15.10;;
51616;SDS011;37697;52.588;13.394;2024-03-02T20:18:13;23.60;;;16.70;;
51616;SDS011;37697;52.588;13.394;2024-03-02T20:23:38;23.60;;;16.80;;
51616;SDS011;37697;52.588;13.394;2024-03-02T20:29:04;25.70;;;18.40;;
51616;SDS011;37697;52.588;13.394;2024-03-02T20:34:30;30.40;;;22.30;;
51616;SDS011;37697;52.588;13.394;2024-03-02T20:39:55;42.40;;;29.20;;
51616;SDS011;37697;52.588;13.394;2024-03-02T20:45:21;47.40;;;32.30;;
51616;SDS011;37697;52.588;13.394;2024-03-02T20:50:47;44.30;;;30.60;;
51616;SDS011;37697;52.588;13.394;2024-03-02T20:56:13;40.50;;;27.50;;
51616;SDS011;37697;52.588;13.394;2024-03-02T21:01:39;38.70;;;28.10;;
51616;SDS011;37697;52.588;13.394;2024-03-02T21:07:05;42.00;;;26.40;;
51616;SDS011;37697;52.588;13.394;2024-03-02T21:12:30;38.20;;;26.30;;
51616;SDS011;37697;52.588;13.394;2024-03-02T21:17:49;37.20;;;26.30;;
51616;SDS011;37697;52.588;13.394;2024-03-02T21:23:15;37.10;;;24.80;;
51616;SDS011;37697;52.588;13.394;2024-03-02T21:28:39;36.50;;;25.20;;
51616;SDS011;37697;52.588;13.394;2024-03-02T21:34:05;37.60;;;27.20;;
51616;SDS011;37697;52.588;13.394;2024-03-02T21:39:31;33.40;;;25.20;;
51616;SDS011;37697;52.588;13.394;2024-03-02T21:44:56;35.00;;;23.30;;
51616;SDS011;37697;52.588;13.394;2024-03-02T21:50:22;30.30;;;22.40;;
51616;SDS011;37697;52.588;13.394;2024-03-02T21:55:48;30.00;;;22.10;;
51616;SDS011;37697;52.588;13.394;2024-03-02T22:01:06;33.10;;;23.20;;
51616;SDS011;37697;52.588;13.394;2024-03-02T22:06:32;32.70;;;23.60;;
51616;SDS011;37697;52.588;13.394;2024-03-02T22:11:58;40.10;;;26.70;;
51616;SDS011;37697;52.588;13.394;2024-03-02T22:17:24;35.50;;;26.10;;
51616;SDS011;37697;52.588;13.394;2024-03-02T22:22:50;35.60;;;25.10;;
51616;SDS011;37697;52.588;13.394;2024-03-02T22:28:15;39.20;;;27.10;;
51616;SDS011;37697;52.588;13.394;2024-03-02T22:33:41;43.00;;;28.50;;
51616;SDS011;37697;52.588;13.394;2024-03-02T22:39:07;41.30;;;27.20;;
51616;SDS011;37697;52.588;13.394;2024-03-02T22:44:31;39.40;;;26.00;;
51616;SDS011;37697;52.588;13.394;2024-03-02T22:49:57;40.20;;;27.10;;
51616;SDS011;37697;52.588;13.394;2024-03-02T22:55:15;50.50;;;29.40;;
51616;SDS011;37697;52.588;13.394;2024-03-02T23:00:41;38.70;;;26.60;;
51616;SDS011;37697;52.588;13.394;2024-03-02T23:06:13;35.70;;;25.00;;
51616;SDS011;37697;52.588;13.394;2024-03-02T23:11:39;38.90;;;26.40;;
51616;SDS011;37697;52.588;13.394;2024-03-02T23:16:57;40.60;;;26.80;;
51616;SDS011;37697;52.588;13.394;2024-03-02T23:22:22;39.60;;;26.90;;
51616;SDS011;37697;52.588;13.394;2024-03-02T23:27:48;39.70;;;28.00;;
51616;SDS011;37697;52.588;13.394;2024-03-02T23:33:14;47.60;;;30.90;;
51616;SDS011;37697;52.588;13.394;2024-03-02T23:38:40;42.50;;;28.20;;
51616;SDS011;37697;52.588;13.394;2024-03-02T23:43:58;41.20;;;28.30;;
51616;SDS011;37697;52.588;13.394;2024-03-02T23:49:17;44.90;;;30.20;;
51616;SDS011;37697;52.588;13.394;2024-03-02T23:54:41;43.10;;;30.30;;
